sensor_id;sensor_type;location;lat;lon;timestamp;temperature;humidity
5278;DHT22;2662;51.194;6.614;2023-04-28T00:00:51;11.20;99.90
5278;DHT22;2662;51.194;6.614;2023-04-28T00:03:18;11.10;99.90
5278;DHT22;2662;51.194;6.614;2023-04-28T00:05:44;11.00;99.90
5278;DHT22;2662;51.194;6.614;2023-04-28T00:08:15;11.10;99.90
5278;DHT22;2662;51.194;6.614;2023-04-28T00:10:41;11.20;99.90
5278;DHT22;2662;51.194;6.614;2023-04-28T00:13:08;11.30;99.90
5278;DHT22;2662;51.194;6.614;2023-04-28T00:15:35;11.30;99.90
5278;DHT22;2662;51.194;6.614;2023-04-28T00:18:02;11.30;99.90
5278;DHT22;2662;51.194;6.614;2023-04-28T00:20:29;11.20;99.90
5278;DHT22;2662;51.194;6.614;2023-04-28T00:22:55;11.30;99.90
5278;DHT22;2662;51.194;6.614;2023-04-28T00:25:23;11.40;99.90
5278;DHT22;2662;51.194;6.614;2023-04-28T00:27:50;11.50;99.90
5278;DHT22;2662;51.194;6.614;2023-04-28T00:30:17;11.50;99.90
5278;DHT22;2662;51.194;6.614;2023-04-28T00:32:43;11.60;99.90
5278;DHT22;2662;51.194;6.614;2023-04-28T00:35:10;11.70;99.90
5278;DHT22;2662;51.194;6.614;2023-04-28T00:37:37;11.70;99.90
5278;DHT22;2662;51.194;6.614;2023-04-28T00:40:05;11.60;99.90
5278;DHT22;2662;51.194;6.614;2023-04-28T00:42:34;11.60;99.90
5278;DHT22;2662;51.194;6.614;2023-04-28T00:45:00;11.70;99.90
5278;DHT22;2662;51.194;6.614;2023-04-28T00:47:30;11.60;99.90
5278;DHT22;2662;51.194;6.614;2023-04-28T00:49:58;11.40;99.90
5278;DHT22;2662;51.194;6.614;2023-04-28T00:52:26;11.40;99.90
5278;DHT22;2662;51.194;6.614;2023-04-28T00:54:53;11.40;99.90
5278;DHT22;2662;51.194;6.614;2023-04-28T00:57:21;11.30;99.90
5278;DHT22;2662;51.194;6.614;2023-04-28T00:59:49;11.20;99.90
5278;DHT22;2662;51.194;6.614;2023-04-28T01:02:16;11.10;99.90
5278;DHT22;2662;51.194;6.614;2023-04-28T01:04:44;11.00;99.90
5278;DHT22;2662;51.194;6.614;2023-04-28T01:07:11;10.90;99.90
5278;DHT22;2662;51.194;6.614;2023-04-28T01:09:38;10.90;99.90
5278;DHT22;2662;51.194;6.614;2023-04-28T01:12:05;11.00;99.90
5278;DHT22;2662;51.194;6.614;2023-04-28T01:14:32;11.10;99.90
5278;DHT22;2662;51.194;6.614;2023-04-28T01:17:01;11.00;99.90
5278;DHT22;2662;51.194;6.614;2023-04-28T01:19:28;10.90;99.90
5278;DHT22;2662;51.194;6.614;2023-04-28T01:21:55;10.90;99.90
5278;DHT22;2662;51.194;6.614;2023-04-28T01:24:23;10.80;99.90
5278;DHT22;2662;51.194;6.614;2023-04-28T01:26:50;10.90;99.90
5278;DHT22;2662;51.194;6.614;2023-04-28T01:29:16;10.90;99.90
5278;DHT22;2662;51.194;6.614;2023-04-28T01:31:43;10.90;99.90
5278;DHT22;2662;51.194;6.614;2023-04-28T01:34:10;11.10;99.90
5278;DHT22;2662;51.194;6.614;2023-04-28T01:36:36;11.20;99.90
5278;DHT22;2662;51.194;6.614;2023-04-28T01:39:03;11.30;99.90
5278;DHT22;2662;51.194;6.614;2023-04-28T01:41:32;11.40;99.90
5278;DHT22;2662;51.194;6.614;2023-04-28T01:43:59;11.40;99.90
5278;DHT22;2662;51.194;6.614;2023-04-28T01:46:26;11.50;99.90
5278;DHT22;2662;51.194;6.614;2023-04-28T01:48:53;11.50;99.90
5278;DHT22;2662;51.194;6.614;2023-04-28T01:51:19;11.50;99.90
5278;DHT22;2662;51.194;6.614;2023-04-28T01:53:46;11.50;99.90
5278;DHT22;2662;51.194;6.614;2023-04-28T01:56:13;11.60;99.90
5278;DHT22;2662;51.194;6.614;2023-04-28T01:58:41;11.60;99.90
5278;DHT22;2662;51.194;6.614;2023-04-28T02:01:07;11.70;99.90
5278;DHT22;2662;51.194;6.614;2023-04-28T02:03:34;11.70;99.90
5278;DHT22;2662;51.194;6.614;2023-04-28T02:06:01;11.80;99.90
5278;DHT22;2662;51.194;6.614;2023-04-28T02:08:28;11.90;99.90
5278;DHT22;2662;51.194;6.614;2023-04-28T02:10:55;11.90;99.90
5278;DHT22;2662;51.194;6.614;2023-04-28T02:13:22;11.90;99.90
5278;DHT22;2662;51.194;6.614;2023-04-28T02:15:50;11.90;99.90
5278;DHT22;2662;51.194;6.614;2023-04-28T02:18:17;12.00;99.90
5278;DHT22;2662;51.194;6.614;2023-04-28T02:20:43;12.00;99.90
5278;DHT22;2662;51.194;6.614;2023-04-28T02:23:10;12.00;99.90
5278;DHT22;2662;51.194;6.614;2023-04-28T02:25:37;11.90;99.90
5278;DHT22;2662;51.194;6.614;2023-04-28T02:28:04;11.90;99.90
5278;DHT22;2662;51.194;6.614;2023-04-28T02:30:30;11.80;99.90
5278;DHT22;2662;51.194;6.614;2023-04-28T02:32:58;11.80;99.90
5278;DHT22;2662;51.194;6.614;2023-04-28T02:35:25;11.80;99.90
5278;DHT22;2662;51.194;6.614;2023-04-28T02:37:52;11.80;99.90
5278;DHT22;2662;51.194;6.614;2023-04-28T02:40:19;11.80;99.90
5278;DHT22;2662;51.194;6.614;2023-04-28T02:42:46;11.80;99.90
5278;DHT22;2662;51.194;6.614;2023-04-28T02:45:12;11.80;99.90
5278;DHT22;2662;51.194;6.614;2023-04-28T02:47:39;11.70;99.90
5278;DHT22;2662;51.194;6.614;2023-04-28T02:50:08;11.70;99.90
5278;DHT22;2662;51.194;6.614;2023-04-28T02:52:35;11.70;99.90
5278;DHT22;2662;51.194;6.614;2023-04-28T02:55:02;11.70;99.90
5278;DHT22;2662;51.194;6.614;2023-04-28T02:57:29;11.70;99.90
5278;DHT22;2662;51.194;6.614;2023-04-28T02:59:56;11.80;99.90
5278;DHT22;2662;51.194;6.614;2023-04-28T03:02:23;11.80;99.90
5278;DHT22;2662;51.194;6.614;2023-04-28T03:04:49;11.80;99.90
5278;DHT22;2662;51.194;6.614;2023-04-28T03:07:17;11.80;99.90
5278;DHT22;2662;51.194;6.614;2023-04-28T03:09:44;11.80;99.90
5278;DHT22;2662;51.194;6.614;2023-04-28T03:12:11;11.90;99.90
5278;DHT22;2662;51.194;6.614;2023-04-28T03:14:38;11.90;99.90
5278;DHT22;2662;51.194;6.614;2023-04-28T03:17:05;11.90;99.90
5278;DHT22;2662;51.194;6.614;2023-04-28T03:19:31;11.90;99.90
5278;DHT22;2662;51.194;6.614;2023-04-28T03:21:58;11.80;99.90
5278;DHT22;2662;51.194;6.614;2023-04-28T03:24:26;11.70;99.90
5278;DHT22;2662;51.194;6.614;2023-04-28T03:26:53;11.60;99.90
5278;DHT22;2662;51.194;6.614;2023-04-28T03:29:20;11.60;99.90
5278;DHT22;2662;51.194;6.614;2023-04-28T03:31:48;11.50;99.90
5278;DHT22;2662;51.194;6.614;2023-04-28T03:34:15;11.30;99.90
5278;DHT22;2662;51.194;6.614;2023-04-28T03:36:42;11.30;99.90
5278;DHT22;2662;51.194;6.614;2023-04-28T03:39:08;11.30;99.90
5278;DHT22;2662;51.194;6.614;2023-04-28T03:41:37;11.20;99.90
5278;DHT22;2662;51.194;6.614;2023-04-28T03:44:03;11.20;99.90
5278;DHT22;2662;51.194;6.614;2023-04-28T03:46:30;11.10;99.90
5278;DHT22;2662;51.194;6.614;2023-04-28T03:48:59;11.10;99.90
5278;DHT22;2662;51.194;6.614;2023-04-28T03:51:26;11.10;99.90
5278;DHT22;2662;51.194;6.614;2023-04-28T03:53:53;11.10;99.90
5278;DHT22;2662;51.194;6.614;2023-04-28T03:56:20;11.10;99.90
5278;DHT22;2662;51.194;6.614;2023-04-28T03:58:48;11.00;99.90
5278;DHT22;2662;51.194;6.614;2023-04-28T04:01:15;11.00;99.90
5278;DHT22;2662;51.194;6.614;2023-04-28T04:03:42;11.00;99.90
5278;DHT22;2662;51.194;6.614;2023-04-28T04:06:09;10.90;99.90
5278;DHT22;2662;51.194;6.614;2023-04-28T04:08:35;11.00;99.90
5278;DHT22;2662;51.194;6.614;2023-04-28T04:11:02;11.00;99.90
5278;DHT22;2662;51.194;6.614;2023-04-28T04:13:29;11.00;99.90
5278;DHT22;2662;51.194;6.614;2023-04-28T04:15:57;11.00;99.90
5278;DHT22;2662;51.194;6.614;2023-04-28T04:18:24;11.00;99.90
5278;DHT22;2662;51.194;6.614;2023-04-28T04:20:52;11.10;99.90
5278;DHT22;2662;51.194;6.614;2023-04-28T04:23:20;11.10;99.90
5278;DHT22;2662;51.194;6.614;2023-04-28T04:25:47;11.10;99.90
5278;DHT22;2662;51.194;6.614;2023-04-28T04:28:14;11.20;99.90
5278;DHT22;2662;51.194;6.614;2023-04-28T04:33:58;11.20;99.90
5278;DHT22;2662;51.194;6.614;2023-04-28T04:36:25;11.30;99.90
5278;DHT22;2662;51.194;6.614;2023-04-28T04:38:52;11.30;99.90
5278;DHT22;2662;51.194;6.614;2023-04-28T04:41:19;11.30;99.90
5278;DHT22;2662;51.194;6.614;2023-04-28T04:43:46;11.40;99.90
5278;DHT22;2662;51.194;6.614;2023-04-28T04:46:13;11.40;99.90
5278;DHT22;2662;51.194;6.614;2023-04-28T04:48:39;11.50;99.90
5278;DHT22;2662;51.194;6.614;2023-04-28T04:51:07;11.50;99.90
5278;DHT22;2662;51.194;6.614;2023-04-28T04:53:34;11.60;99.90
5278;DHT22;2662;51.194;6.614;2023-04-28T04:56:01;11.70;99.90
5278;DHT22;2662;51.194;6.614;2023-04-28T04:58:28;11.70;99.90
5278;DHT22;2662;51.194;6.614;2023-04-28T05:00:55;11.70;99.90
5278;DHT22;2662;51.194;6.614;2023-04-28T05:03:22;11.80;99.90
5278;DHT22;2662;51.194;6.614;2023-04-28T05:05:49;11.80;99.90
5278;DHT22;2662;51.194;6.614;2023-04-28T05:08:17;11.90;99.90
5278;DHT22;2662;51.194;6.614;2023-04-28T05:10:43;12.00;99.90
5278;DHT22;2662;51.194;6.614;2023-04-28T05:13:10;12.00;99.90
5278;DHT22;2662;51.194;6.614;2023-04-28T05:15:37;12.00;99.90
5278;DHT22;2662;51.194;6.614;2023-04-28T05:18:04;12.10;99.90
5278;DHT22;2662;51.194;6.614;2023-04-28T05:20:35;12.20;99.90
5278;DHT22;2662;51.194;6.614;2023-04-28T05:23:02;12.30;99.90
5278;DHT22;2662;51.194;6.614;2023-04-28T05:25:30;12.30;99.90
5278;DHT22;2662;51.194;6.614;2023-04-28T05:27:57;12.30;99.90
5278;DHT22;2662;51.194;6.614;2023-04-28T05:30:23;12.30;99.90
5278;DHT22;2662;51.194;6.614;2023-04-28T05:32:52;12.40;99.90
5278;DHT22;2662;51.194;6.614;2023-04-28T05:35:19;12.40;99.90
5278;DHT22;2662;51.194;6.614;2023-04-28T05:37:46;12.40;99.90
5278;DHT22;2662;51.194;6.614;2023-04-28T05:40:12;12.50;99.90
5278;DHT22;2662;51.194;6.614;2023-04-28T05:42:41;12.40;99.90
5278;DHT22;2662;51.194;6.614;2023-04-28T05:45:08;12.40;99.90
5278;DHT22;2662;51.194;6.614;2023-04-28T05:47:35;12.50;99.90
5278;DHT22;2662;51.194;6.614;2023-04-28T05:50:03;12.60;99.90
5278;DHT22;2662;51.194;6.614;2023-04-28T05:52:29;12.70;99.90
5278;DHT22;2662;51.194;6.614;2023-04-28T05:54:56;12.90;99.90
5278;DHT22;2662;51.194;6.614;2023-04-28T05:57:23;13.20;99.90
5278;DHT22;2662;51.194;6.614;2023-04-28T05:59:51;13.30;99.90
5278;DHT22;2662;51.194;6.614;2023-04-28T06:02:18;13.60;99.90
5278;DHT22;2662;51.194;6.614;2023-04-28T06:04:44;13.90;99.90
5278;DHT22;2662;51.194;6.614;2023-04-28T06:07:11;14.10;99.90
5278;DHT22;2662;51.194;6.614;2023-04-28T06:09:38;14.20;99.90
5278;DHT22;2662;51.194;6.614;2023-04-28T06:12:05;14.30;99.90
5278;DHT22;2662;51.194;6.614;2023-04-28T06:14:32;14.30;99.90
5278;DHT22;2662;51.194;6.614;2023-04-28T06:17:02;14.40;99.90
5278;DHT22;2662;51.194;6.614;2023-04-28T06:19:28;14.40;99.90
5278;DHT22;2662;51.194;6.614;2023-04-28T06:21:55;14.30;99.90
5278;DHT22;2662;51.194;6.614;2023-04-28T06:24:22;14.10;99.90
5278;DHT22;2662;51.194;6.614;2023-04-28T06:26:49;13.90;99.90
5278;DHT22;2662;51.194;6.614;2023-04-28T06:29:16;13.80;99.90
5278;DHT22;2662;51.194;6.614;2023-04-28T06:31:44;13.50;99.90
5278;DHT22;2662;51.194;6.614;2023-04-28T06:34:13;13.50;99.90
5278;DHT22;2662;51.194;6.614;2023-04-28T06:36:39;13.50;99.90
5278;DHT22;2662;51.194;6.614;2023-04-28T06:39:06;13.40;99.90
5278;DHT22;2662;51.194;6.614;2023-04-28T06:41:33;13.40;99.90
5278;DHT22;2662;51.194;6.614;2023-04-28T06:44:00;13.40;99.90
5278;DHT22;2662;51.194;6.614;2023-04-28T06:46:27;13.50;99.90
5278;DHT22;2662;51.194;6.614;2023-04-28T06:48:53;13.50;99.90
5278;DHT22;2662;51.194;6.614;2023-04-28T06:51:22;13.60;99.90
5278;DHT22;2662;51.194;6.614;2023-04-28T06:53:48;13.80;99.90
5278;DHT22;2662;51.194;6.614;2023-04-28T06:56:17;14.00;99.90
5278;DHT22;2662;51.194;6.614;2023-04-28T06:58:44;14.00;99.90
5278;DHT22;2662;51.194;6.614;2023-04-28T07:01:11;14.10;99.90
5278;DHT22;2662;51.194;6.614;2023-04-28T07:03:38;14.10;99.90
5278;DHT22;2662;51.194;6.614;2023-04-28T07:06:05;14.10;99.90
5278;DHT22;2662;51.194;6.614;2023-04-28T07:08:33;14.00;99.90
5278;DHT22;2662;51.194;6.614;2023-04-28T07:11:00;13.90;99.90
5278;DHT22;2662;51.194;6.614;2023-04-28T07:13:28;14.00;99.90
5278;DHT22;2662;51.194;6.614;2023-04-28T07:15:55;14.00;99.90
5278;DHT22;2662;51.194;6.614;2023-04-28T07:18:22;14.10;99.90
5278;DHT22;2662;51.194;6.614;2023-04-28T07:20:50;14.20;99.90
5278;DHT22;2662;51.194;6.614;2023-04-28T07:23:16;14.40;99.90
5278;DHT22;2662;51.194;6.614;2023-04-28T07:25:45;14.40;99.90
5278;DHT22;2662;51.194;6.614;2023-04-28T07:28:11;14.40;99.90
5278;DHT22;2662;51.194;6.614;2023-04-28T07:30:39;14.30;99.90
5278;DHT22;2662;51.194;6.614;2023-04-28T07:33:05;14.30;99.90
5278;DHT22;2662;51.194;6.614;2023-04-28T07:35:32;14.40;99.90
5278;DHT22;2662;51.194;6.614;2023-04-28T07:37:59;14.40;99.90
5278;DHT22;2662;51.194;6.614;2023-04-28T07:40:26;14.50;99.90
5278;DHT22;2662;51.194;6.614;2023-04-28T07:42:54;14.40;99.90
5278;DHT22;2662;51.194;6.614;2023-04-28T07:45:21;14.50;99.90
5278;DHT22;2662;51.194;6.614;2023-04-28T07:47:48;14.60;99.90
5278;DHT22;2662;51.194;6.614;2023-04-28T07:50:15;14.60;99.90
5278;DHT22;2662;51.194;6.614;2023-04-28T07:52:42;14.80;99.90
5278;DHT22;2662;51.194;6.614;2023-04-28T07:55:09;14.90;99.90
5278;DHT22;2662;51.194;6.614;2023-04-28T07:57:36;15.10;99.90
5278;DHT22;2662;51.194;6.614;2023-04-28T08:00:05;15.10;99.90
5278;DHT22;2662;51.194;6.614;2023-04-28T08:02:32;15.10;99.90
5278;DHT22;2662;51.194;6.614;2023-04-28T08:05:00;15.20;99.90
5278;DHT22;2662;51.194;6.614;2023-04-28T08:07:27;15.40;99.90
5278;DHT22;2662;51.194;6.614;2023-04-28T08:09:54;15.60;99.90
5278;DHT22;2662;51.194;6.614;2023-04-28T08:12:21;15.90;99.90
5278;DHT22;2662;51.194;6.614;2023-04-28T08:14:47;16.00;99.90
5278;DHT22;2662;51.194;6.614;2023-04-28T08:17:16;16.00;99.90
5278;DHT22;2662;51.194;6.614;2023-04-28T08:19:43;15.90;99.90
5278;DHT22;2662;51.194;6.614;2023-04-28T08:22:10;15.80;99.90
5278;DHT22;2662;51.194;6.614;2023-04-28T08:24:38;15.80;99.90
5278;DHT22;2662;51.194;6.614;2023-04-28T08:27:05;15.80;99.90
5278;DHT22;2662;51.194;6.614;2023-04-28T08:29:32;16.00;99.90
5278;DHT22;2662;51.194;6.614;2023-04-28T08:31:59;16.00;99.90
5278;DHT22;2662;51.194;6.614;2023-04-28T08:34:28;15.90;99.90
5278;DHT22;2662;51.194;6.614;2023-04-28T08:36:54;15.70;99.90
5278;DHT22;2662;51.194;6.614;2023-04-28T08:39:21;15.70;99.90
5278;DHT22;2662;51.194;6.614;2023-04-28T08:41:48;15.80;99.90
5278;DHT22;2662;51.194;6.614;2023-04-28T08:44:15;15.90;99.90
5278;DHT22;2662;51.194;6.614;2023-04-28T08:46:43;15.90;99.90
5278;DHT22;2662;51.194;6.614;2023-04-28T08:49:13;16.00;99.90
5278;DHT22;2662;51.194;6.614;2023-04-28T08:51:45;15.90;99.90
5278;DHT22;2662;51.194;6.614;2023-04-28T08:54:15;15.90;99.90
5278;DHT22;2662;51.194;6.614;2023-04-28T08:56:44;16.10;99.90
5278;DHT22;2662;51.194;6.614;2023-04-28T08:59:11;16.20;99.90
5278;DHT22;2662;51.194;6.614;2023-04-28T09:01:38;16.40;99.90
5278;DHT22;2662;51.194;6.614;2023-04-28T09:04:05;16.60;99.90
5278;DHT22;2662;51.194;6.614;2023-04-28T09:06:34;16.70;99.90
5278;DHT22;2662;51.194;6.614;2023-04-28T09:09:22;16.70;99.90
5278;DHT22;2662;51.194;6.614;2023-04-28T09:11:51;16.60;99.90
5278;DHT22;2662;51.194;6.614;2023-04-28T09:14:19;16.60;99.90
5278;DHT22;2662;51.194;6.614;2023-04-28T09:16:46;16.70;99.90
5278;DHT22;2662;51.194;6.614;2023-04-28T09:19:13;16.80;99.90
5278;DHT22;2662;51.194;6.614;2023-04-28T09:21:48;16.80;99.90
5278;DHT22;2662;51.194;6.614;2023-04-28T09:24:27;16.80;99.90
5278;DHT22;2662;51.194;6.614;2023-04-28T09:26:54;16.90;99.90
5278;DHT22;2662;51.194;6.614;2023-04-28T09:29:21;16.80;99.90
5278;DHT22;2662;51.194;6.614;2023-04-28T09:31:48;17.00;99.90
5278;DHT22;2662;51.194;6.614;2023-04-28T09:34:15;17.00;99.90
5278;DHT22;2662;51.194;6.614;2023-04-28T09:36:42;17.10;99.90
5278;DHT22;2662;51.194;6.614;2023-04-28T09:39:08;17.20;99.90
5278;DHT22;2662;51.194;6.614;2023-04-28T09:41:39;17.30;99.90
5278;DHT22;2662;51.194;6.614;2023-04-28T09:44:10;17.50;99.90
5278;DHT22;2662;51.194;6.614;2023-04-28T09:46:37;17.60;99.90
5278;DHT22;2662;51.194;6.614;2023-04-28T09:49:04;17.70;99.90
5278;DHT22;2662;51.194;6.614;2023-04-28T09:51:31;17.50;99.90
5278;DHT22;2662;51.194;6.614;2023-04-28T09:54:00;17.50;99.90
5278;DHT22;2662;51.194;6.614;2023-04-28T09:56:27;17.40;99.90
5278;DHT22;2662;51.194;6.614;2023-04-28T09:58:56;17.30;99.90
5278;DHT22;2662;51.194;6.614;2023-04-28T10:01:23;17.20;99.90
5278;DHT22;2662;51.194;6.614;2023-04-28T10:03:52;17.30;99.90
5278;DHT22;2662;51.194;6.614;2023-04-28T10:06:19;17.50;99.90
5278;DHT22;2662;51.194;6.614;2023-04-28T10:08:47;17.50;99.90
5278;DHT22;2662;51.194;6.614;2023-04-28T10:11:15;17.60;99.90
5278;DHT22;2662;51.194;6.614;2023-04-28T10:13:42;17.80;99.90
5278;DHT22;2662;51.194;6.614;2023-04-28T10:16:12;18.00;99.90
5278;DHT22;2662;51.194;6.614;2023-04-28T10:18:40;18.00;99.90
5278;DHT22;2662;51.194;6.614;2023-04-28T10:21:07;18.00;99.90
5278;DHT22;2662;51.194;6.614;2023-04-28T10:24:02;18.10;99.90
5278;DHT22;2662;51.194;6.614;2023-04-28T10:27:06;18.10;99.90
5278;DHT22;2662;51.194;6.614;2023-04-28T10:29:34;18.10;99.90
5278;DHT22;2662;51.194;6.614;2023-04-28T10:32:19;18.10;99.90
5278;DHT22;2662;51.194;6.614;2023-04-28T10:34:46;18.10;99.90
5278;DHT22;2662;51.194;6.614;2023-04-28T10:37:14;18.20;99.90
5278;DHT22;2662;51.194;6.614;2023-04-28T10:42:51;18.20;99.90
5278;DHT22;2662;51.194;6.614;2023-04-28T10:48:19;18.50;99.90
5278;DHT22;2662;51.194;6.614;2023-04-28T10:51:20;18.50;99.90
5278;DHT22;2662;51.194;6.614;2023-04-28T10:54:07;18.50;99.90
5278;DHT22;2662;51.194;6.614;2023-04-28T10:56:34;18.50;99.90
5278;DHT22;2662;51.194;6.614;2023-04-28T10:59:23;18.60;99.90
5278;DHT22;2662;51.194;6.614;2023-04-28T11:01:51;18.70;99.90
5278;DHT22;2662;51.194;6.614;2023-04-28T11:04:19;18.90;99.90
5278;DHT22;2662;51.194;6.614;2023-04-28T11:06:46;19.10;99.90
5278;DHT22;2662;51.194;6.614;2023-04-28T11:09:56;19.50;99.90
5278;DHT22;2662;51.194;6.614;2023-04-28T11:12:23;19.60;99.90
5278;DHT22;2662;51.194;6.614;2023-04-28T11:14:50;19.50;99.90
5278;DHT22;2662;51.194;6.614;2023-04-28T11:17:17;19.40;99.90
5278;DHT22;2662;51.194;6.614;2023-04-28T11:20:01;19.40;99.90
5278;DHT22;2662;51.194;6.614;2023-04-28T11:22:29;19.70;99.90
5278;DHT22;2662;51.194;6.614;2023-04-28T11:24:57;20.20;99.90
5278;DHT22;2662;51.194;6.614;2023-04-28T11:27:25;20.50;99.90
5278;DHT22;2662;51.194;6.614;2023-04-28T11:29:52;20.90;99.90
5278;DHT22;2662;51.194;6.614;2023-04-28T11:32:25;21.30;99.90
5278;DHT22;2662;51.194;6.614;2023-04-28T11:34:53;21.60;99.90
5278;DHT22;2662;51.194;6.614;2023-04-28T11:37:21;21.90;99.90
5278;DHT22;2662;51.194;6.614;2023-04-28T11:39:48;22.30;99.90
5278;DHT22;2662;51.194;6.614;2023-04-28T11:42:15;22.30;99.90
5278;DHT22;2662;51.194;6.614;2023-04-28T11:44:49;22.30;99.90
5278;DHT22;2662;51.194;6.614;2023-04-28T11:47:27;22.10;99.90
5278;DHT22;2662;51.194;6.614;2023-04-28T11:49:54;22.00;99.90
5278;DHT22;2662;51.194;6.614;2023-04-28T11:52:22;21.90;99.90
5278;DHT22;2662;51.194;6.614;2023-04-28T11:54:55;21.90;99.90
5278;DHT22;2662;51.194;6.614;2023-04-28T11:57:23;21.90;99.90
5278;DHT22;2662;51.194;6.614;2023-04-28T11:59:50;22.10;99.90
5278;DHT22;2662;51.194;6.614;2023-04-28T12:02:24;22.30;99.90
5278;DHT22;2662;51.194;6.614;2023-04-28T12:04:52;22.30;99.90
5278;DHT22;2662;51.194;6.614;2023-04-28T12:07:19;22.40;99.90
5278;DHT22;2662;51.194;6.614;2023-04-28T12:10:08;22.50;99.90
5278;DHT22;2662;51.194;6.614;2023-04-28T12:12:35;22.60;99.90
5278;DHT22;2662;51.194;6.614;2023-04-28T12:15:03;22.90;99.90
5278;DHT22;2662;51.194;6.614;2023-04-28T12:17:32;22.90;99.90
5278;DHT22;2662;51.194;6.614;2023-04-28T12:20:00;23.00;99.90
5278;DHT22;2662;51.194;6.614;2023-04-28T12:22:27;23.20;99.90
5278;DHT22;2662;51.194;6.614;2023-04-28T12:25:06;23.40;99.90
5278;DHT22;2662;51.194;6.614;2023-04-28T12:27:34;23.30;99.90
5278;DHT22;2662;51.194;6.614;2023-04-28T12:30:01;23.30;99.90
5278;DHT22;2662;51.194;6.614;2023-04-28T12:32:37;23.10;99.90
5278;DHT22;2662;51.194;6.614;2023-04-28T12:35:05;22.90;99.90
5278;DHT22;2662;51.194;6.614;2023-04-28T12:37:32;22.90;99.90
5278;DHT22;2662;51.194;6.614;2023-04-28T12:39:59;23.00;99.90
5278;DHT22;2662;51.194;6.614;2023-04-28T12:42:30;23.20;99.90
5278;DHT22;2662;51.194;6.614;2023-04-28T12:44:56;23.10;99.90
5278;DHT22;2662;51.194;6.614;2023-04-28T12:47:23;22.80;99.90
5278;DHT22;2662;51.194;6.614;2023-04-28T12:49:50;22.80;99.90
5278;DHT22;2662;51.194;6.614;2023-04-28T12:52:18;22.80;99.90
5278;DHT22;2662;51.194;6.614;2023-04-28T12:54:45;23.00;99.90
5278;DHT22;2662;51.194;6.614;2023-04-28T12:57:12;23.10;99.90
5278;DHT22;2662;51.194;6.614;2023-04-28T12:59:40;23.30;99.90
5278;DHT22;2662;51.194;6.614;2023-04-28T13:02:07;23.50;99.90
5278;DHT22;2662;51.194;6.614;2023-04-28T13:04:34;23.30;99.90
5278;DHT22;2662;51.194;6.614;2023-04-28T13:07:01;23.00;99.90
5278;DHT22;2662;51.194;6.614;2023-04-28T13:09:28;23.00;99.90
5278;DHT22;2662;51.194;6.614;2023-04-28T13:11:55;22.80;99.90
5278;DHT22;2662;51.194;6.614;2023-04-28T13:14:22;22.80;99.90
5278;DHT22;2662;51.194;6.614;2023-04-28T13:16:51;23.20;99.90
5278;DHT22;2662;51.194;6.614;2023-04-28T13:19:17;23.50;99.90
5278;DHT22;2662;51.194;6.614;2023-04-28T13:21:44;23.60;99.90
5278;DHT22;2662;51.194;6.614;2023-04-28T13:24:12;23.60;99.90
5278;DHT22;2662;51.194;6.614;2023-04-28T13:26:39;23.80;99.90
5278;DHT22;2662;51.194;6.614;2023-04-28T13:29:08;23.80;99.90
5278;DHT22;2662;51.194;6.614;2023-04-28T13:31:35;23.80;99.90
5278;DHT22;2662;51.194;6.614;2023-04-28T13:34:03;24.00;99.90
5278;DHT22;2662;51.194;6.614;2023-04-28T13:36:30;24.10;99.90
5278;DHT22;2662;51.194;6.614;2023-04-28T13:38:58;24.00;99.90
5278;DHT22;2662;51.194;6.614;2023-04-28T13:41:25;23.70;99.90
5278;DHT22;2662;51.194;6.614;2023-04-28T13:43:52;23.60;99.90
5278;DHT22;2662;51.194;6.614;2023-04-28T13:46:19;23.70;99.90
5278;DHT22;2662;51.194;6.614;2023-04-28T13:48:46;23.80;99.90
5278;DHT22;2662;51.194;6.614;2023-04-28T13:51:14;23.80;99.90
5278;DHT22;2662;51.194;6.614;2023-04-28T13:53:41;23.90;99.90
5278;DHT22;2662;51.194;6.614;2023-04-28T13:56:08;24.00;99.90
5278;DHT22;2662;51.194;6.614;2023-04-28T13:58:35;23.80;99.90
5278;DHT22;2662;51.194;6.614;2023-04-28T14:01:02;23.50;99.90
5278;DHT22;2662;51.194;6.614;2023-04-28T14:03:29;23.40;99.90
5278;DHT22;2662;51.194;6.614;2023-04-28T14:05:57;23.10;99.90
5278;DHT22;2662;51.194;6.614;2023-04-28T14:08:25;22.80;99.90
5278;DHT22;2662;51.194;6.614;2023-04-28T14:10:53;22.60;99.90
5278;DHT22;2662;51.194;6.614;2023-04-28T14:13:20;22.30;99.90
5278;DHT22;2662;51.194;6.614;2023-04-28T14:15:46;22.20;99.90
5278;DHT22;2662;51.194;6.614;2023-04-28T14:18:13;22.30;99.90
5278;DHT22;2662;51.194;6.614;2023-04-28T14:20:40;22.30;99.90
5278;DHT22;2662;51.194;6.614;2023-04-28T14:23:07;22.20;99.90
5278;DHT22;2662;51.194;6.614;2023-04-28T14:25:35;22.00;99.90
5278;DHT22;2662;51.194;6.614;2023-04-28T14:28:02;22.00;99.90
5278;DHT22;2662;51.194;6.614;2023-04-28T14:30:29;22.10;99.90
5278;DHT22;2662;51.194;6.614;2023-04-28T14:32:56;22.30;99.90
5278;DHT22;2662;51.194;6.614;2023-04-28T14:35:23;22.30;99.90
5278;DHT22;2662;51.194;6.614;2023-04-28T14:37:51;22.40;99.90
5278;DHT22;2662;51.194;6.614;2023-04-28T14:40:17;22.40;99.90
5278;DHT22;2662;51.194;6.614;2023-04-28T14:42:46;22.30;99.90
5278;DHT22;2662;51.194;6.614;2023-04-28T14:45:12;22.30;99.90
5278;DHT22;2662;51.194;6.614;2023-04-28T14:47:40;22.20;99.90
5278;DHT22;2662;51.194;6.614;2023-04-28T14:50:07;21.90;99.90
5278;DHT22;2662;51.194;6.614;2023-04-28T14:52:35;21.80;99.90
5278;DHT22;2662;51.194;6.614;2023-04-28T14:55:03;21.80;99.90
5278;DHT22;2662;51.194;6.614;2023-04-28T14:57:30;21.80;99.90
5278;DHT22;2662;51.194;6.614;2023-04-28T15:00:00;21.70;99.90
5278;DHT22;2662;51.194;6.614;2023-04-28T15:02:28;21.50;99.90
5278;DHT22;2662;51.194;6.614;2023-04-28T15:04:55;21.40;99.90
5278;DHT22;2662;51.194;6.614;2023-04-28T15:07:23;21.30;99.90
5278;DHT22;2662;51.194;6.614;2023-04-28T15:09:52;21.20;99.90
5278;DHT22;2662;51.194;6.614;2023-04-28T15:12:19;21.20;99.90
5278;DHT22;2662;51.194;6.614;2023-04-28T15:14:46;21.10;99.90
5278;DHT22;2662;51.194;6.614;2023-04-28T15:17:14;20.80;99.90
5278;DHT22;2662;51.194;6.614;2023-04-28T15:19:41;20.60;99.90
5278;DHT22;2662;51.194;6.614;2023-04-28T15:22:08;20.40;99.90
5278;DHT22;2662;51.194;6.614;2023-04-28T15:24:34;19.90;99.90
5278;DHT22;2662;51.194;6.614;2023-04-28T15:27:01;19.70;99.90
5278;DHT22;2662;51.194;6.614;2023-04-28T15:29:29;19.60;99.90
5278;DHT22;2662;51.194;6.614;2023-04-28T15:31:56;19.50;99.90
5278;DHT22;2662;51.194;6.614;2023-04-28T15:34:24;19.40;99.90
5278;DHT22;2662;51.194;6.614;2023-04-28T15:36:51;19.30;99.90
5278;DHT22;2662;51.194;6.614;2023-04-28T15:39:18;19.20;99.90
5278;DHT22;2662;51.194;6.614;2023-04-28T15:41:45;19.20;99.90
5278;DHT22;2662;51.194;6.614;2023-04-28T15:44:12;19.20;99.90
5278;DHT22;2662;51.194;6.614;2023-04-28T15:46:39;19.10;99.90
5278;DHT22;2662;51.194;6.614;2023-04-28T15:49:07;19.10;99.90
5278;DHT22;2662;51.194;6.614;2023-04-28T15:51:35;19.20;99.90
5278;DHT22;2662;51.194;6.614;2023-04-28T15:54:02;19.20;99.90
5278;DHT22;2662;51.194;6.614;2023-04-28T15:56:29;19.20;99.90
5278;DHT22;2662;51.194;6.614;2023-04-28T15:58:56;19.30;99.90
5278;DHT22;2662;51.194;6.614;2023-04-28T16:01:23;19.20;99.90
5278;DHT22;2662;51.194;6.614;2023-04-28T16:03:50;19.00;99.90
5278;DHT22;2662;51.194;6.614;2023-04-28T16:06:16;18.90;99.90
5278;DHT22;2662;51.194;6.614;2023-04-28T16:08:44;19.00;99.90
5278;DHT22;2662;51.194;6.614;2023-04-28T16:11:11;19.00;99.90
5278;DHT22;2662;51.194;6.614;2023-04-28T16:13:42;19.00;99.90
5278;DHT22;2662;51.194;6.614;2023-04-28T16:16:09;18.80;99.90